sensor_id;sensor_type;location;lat;lon;timestamp;temperature;humidity
18444;DHT22;9350;53.176;8.194;2023-04-04T00:01:55;3.00;99.90
18444;DHT22;9350;53.176;8.194;2023-04-04T00:04:22;2.90;99.90
18444;DHT22;9350;53.176;8.194;2023-04-04T00:06:49;2.90;99.90
18444;DHT22;9350;53.176;8.194;2023-04-04T00:09:16;3.00;99.90
18444;DHT22;9350;53.176;8.194;2023-04-04T00:11:45;2.80;99.90
18444;DHT22;9350;53.176;8.194;2023-04-04T00:14:12;2.90;99.90
18444;DHT22;9350;53.176;8.194;2023-04-04T00:16:39;2.70;99.90
18444;DHT22;9350;53.176;8.194;2023-04-04T00:19:05;2.70;99.90
18444;DHT22;9350;53.176;8.194;2023-04-04T00:21:33;2.70;99.90
18444;DHT22;9350;53.176;8.194;2023-04-04T00:24:00;2.70;99.90
18444;DHT22;9350;53.176;8.194;2023-04-04T00:26:26;2.80;99.90
18444;DHT22;9350;53.176;8.194;2023-04-04T00:28:55;2.70;99.90
18444;DHT22;9350;53.176;8.194;2023-04-04T00:31:22;2.60;99.90
18444;DHT22;9350;53.176;8.194;2023-04-04T00:33:48;2.60;99.90
18444;DHT22;9350;53.176;8.194;2023-04-04T00:36:15;2.60;99.90
18444;DHT22;9350;53.176;8.194;2023-04-04T00:38:43;2.60;99.90
18444;DHT22;9350;53.176;8.194;2023-04-04T00:41:10;2.50;99.90
18444;DHT22;9350;53.176;8.194;2023-04-04T00:43:37;2.40;99.90
18444;DHT22;9350;53.176;8.194;2023-04-04T00:46:07;2.50;99.90
18444;DHT22;9350;53.176;8.194;2023-04-04T00:48:35;2.40;99.90
18444;DHT22;9350;53.176;8.194;2023-04-04T00:51:02;2.40;99.90
18444;DHT22;9350;53.176;8.194;2023-04-04T00:53:29;2.40;99.90
18444;DHT22;9350;53.176;8.194;2023-04-04T00:55:56;2.30;99.90
18444;DHT22;9350;53.176;8.194;2023-04-04T00:58:23;2.30;99.90
18444;DHT22;9350;53.176;8.194;2023-04-04T01:00:51;2.40;99.90
18444;DHT22;9350;53.176;8.194;2023-04-04T01:03:19;2.50;99.90
18444;DHT22;9350;53.176;8.194;2023-04-04T01:05:47;2.40;99.90
18444;DHT22;9350;53.176;8.194;2023-04-04T01:08:16;2.40;99.90
18444;DHT22;9350;53.176;8.194;2023-04-04T01:10:47;2.30;99.90
18444;DHT22;9350;53.176;8.194;2023-04-04T01:13:14;2.40;99.90
18444;DHT22;9350;53.176;8.194;2023-04-04T01:15:41;2.20;99.90
18444;DHT22;9350;53.176;8.194;2023-04-04T01:18:10;2.20;99.90
18444;DHT22;9350;53.176;8.194;2023-04-04T01:20:49;2.20;99.90
18444;DHT22;9350;53.176;8.194;2023-04-04T01:23:17;2.20;99.90
18444;DHT22;9350;53.176;8.194;2023-04-04T01:25:47;2.30;99.90
18444;DHT22;9350;53.176;8.194;2023-04-04T01:28:14;2.20;99.90
18444;DHT22;9350;53.176;8.194;2023-04-04T01:30:41;2.20;99.90
18444;DHT22;9350;53.176;8.194;2023-04-04T01:33:12;2.10;99.90
18444;DHT22;9350;53.176;8.194;2023-04-04T01:35:44;2.00;99.90
18444;DHT22;9350;53.176;8.194;2023-04-04T01:38:22;2.10;99.90
18444;DHT22;9350;53.176;8.194;2023-04-04T01:40:54;2.20;99.90
18444;DHT22;9350;53.176;8.194;2023-04-04T01:43:23;2.00;99.90
18444;DHT22;9350;53.176;8.194;2023-04-04T01:45:49;2.00;99.90
18444;DHT22;9350;53.176;8.194;2023-04-04T01:48:16;2.00;99.90
18444;DHT22;9350;53.176;8.194;2023-04-04T01:50:43;1.80;99.90
18444;DHT22;9350;53.176;8.194;2023-04-04T01:53:10;2.00;99.90
18444;DHT22;9350;53.176;8.194;2023-04-04T01:55:36;1.90;99.90
18444;DHT22;9350;53.176;8.194;2023-04-04T01:58:04;2.00;99.90
18444;DHT22;9350;53.176;8.194;2023-04-04T02:00:31;2.00;99.90
18444;DHT22;9350;53.176;8.194;2023-04-04T02:02:58;2.00;99.90
18444;DHT22;9350;53.176;8.194;2023-04-04T02:05:25;2.00;99.90
18444;DHT22;9350;53.176;8.194;2023-04-04T02:07:51;1.90;99.90
18444;DHT22;9350;53.176;8.194;2023-04-04T02:10:18;1.90;99.90
18444;DHT22;9350;53.176;8.194;2023-04-04T02:12:45;2.00;99.90
18444;DHT22;9350;53.176;8.194;2023-04-04T02:15:13;1.90;99.90
18444;DHT22;9350;53.176;8.194;2023-04-04T02:17:40;2.00;99.90
18444;DHT22;9350;53.176;8.194;2023-04-04T02:20:10;2.00;99.90
18444;DHT22;9350;53.176;8.194;2023-04-04T02:22:36;2.00;99.90
18444;DHT22;9350;53.176;8.194;2023-04-04T02:25:04;2.10;99.90
18444;DHT22;9350;53.176;8.194;2023-04-04T02:27:31;2.00;99.90
18444;DHT22;9350;53.176;8.194;2023-04-04T02:29:58;1.90;99.90
18444;DHT22;9350;53.176;8.194;2023-04-04T02:32:26;1.90;99.90
18444;DHT22;9350;53.176;8.194;2023-04-04T02:34:52;1.90;99.90
18444;DHT22;9350;53.176;8.194;2023-04-04T02:37:19;1.90;99.90
18444;DHT22;9350;53.176;8.194;2023-04-04T02:39:46;1.90;99.90
18444;DHT22;9350;53.176;8.194;2023-04-04T02:42:12;1.90;99.90
18444;DHT22;9350;53.176;8.194;2023-04-04T02:44:39;1.90;99.90
18444;DHT22;9350;53.176;8.194;2023-04-04T02:47:07;2.00;99.90
18444;DHT22;9350;53.176;8.194;2023-04-04T02:49:35;1.90;99.90
18444;DHT22;9350;53.176;8.194;2023-04-04T02:52:01;1.80;99.90
18444;DHT22;9350;53.176;8.194;2023-04-04T02:54:28;1.80;99.90
18444;DHT22;9350;53.176;8.194;2023-04-04T02:56:55;1.90;99.90
18444;DHT22;9350;53.176;8.194;2023-04-04T02:59:23;1.90;99.90
18444;DHT22;9350;53.176;8.194;2023-04-04T03:01:50;1.90;99.90
18444;DHT22;9350;53.176;8.194;2023-04-04T03:04:17;1.80;99.90
18444;DHT22;9350;53.176;8.194;2023-04-04T03:06:45;1.80;99.90
18444;DHT22;9350;53.176;8.194;2023-04-04T03:09:12;1.70;99.90
18444;DHT22;9350;53.176;8.194;2023-04-04T03:11:39;1.70;99.90
18444;DHT22;9350;53.176;8.194;2023-04-04T03:14:06;1.60;99.90
18444;DHT22;9350;53.176;8.194;2023-04-04T03:16:33;1.60;99.90
18444;DHT22;9350;53.176;8.194;2023-04-04T03:18:59;1.60;99.90
18444;DHT22;9350;53.176;8.194;2023-04-04T03:21:26;1.60;99.90
18444;DHT22;9350;53.176;8.194;2023-04-04T03:23:54;1.50;99.90
18444;DHT22;9350;53.176;8.194;2023-04-04T03:26:21;1.60;99.90
18444;DHT22;9350;53.176;8.194;2023-04-04T03:28:48;1.50;99.90
18444;DHT22;9350;53.176;8.194;2023-04-04T03:31:15;1.50;99.90
18444;DHT22;9350;53.176;8.194;2023-04-04T03:33:42;1.60;99.90
18444;DHT22;9350;53.176;8.194;2023-04-04T03:36:09;1.50;99.90
18444;DHT22;9350;53.176;8.194;2023-04-04T03:38:37;1.50;99.90
18444;DHT22;9350;53.176;8.194;2023-04-04T03:41:06;1.50;99.90
18444;DHT22;9350;53.176;8.194;2023-04-04T03:43:33;1.60;99.90
18444;DHT22;9350;53.176;8.194;2023-04-04T03:46:00;1.60;99.90
18444;DHT22;9350;53.176;8.194;2023-04-04T03:48:27;1.50;99.90
18444;DHT22;9350;53.176;8.194;2023-04-04T03:50:55;1.50;99.90
18444;DHT22;9350;53.176;8.194;2023-04-04T03:53:23;1.40;99.90
18444;DHT22;9350;53.176;8.194;2023-04-04T03:55:50;1.50;99.90
18444;DHT22;9350;53.176;8.194;2023-04-04T03:58:19;1.30;99.90
18444;DHT22;9350;53.176;8.194;2023-04-04T04:00:46;1.40;99.90
18444;DHT22;9350;53.176;8.194;2023-04-04T04:03:13;1.50;99.90
18444;DHT22;9350;53.176;8.194;2023-04-04T04:05:39;1.40;99.90
18444;DHT22;9350;53.176;8.194;2023-04-04T04:08:06;1.40;99.90
18444;DHT22;9350;53.176;8.194;2023-04-04T04:10:33;1.40;99.90
18444;DHT22;9350;53.176;8.194;2023-04-04T04:13:00;1.40;99.90
18444;DHT22;9350;53.176;8.194;2023-04-04T04:15:28;1.40;99.90
18444;DHT22;9350;53.176;8.194;2023-04-04T04:17:55;1.50;99.90
18444;DHT22;9350;53.176;8.194;2023-04-04T04:20:22;1.50;99.90
18444;DHT22;9350;53.176;8.194;2023-04-04T04:22:49;1.50;99.90
18444;DHT22;9350;53.176;8.194;2023-04-04T04:25:16;1.40;99.90
18444;DHT22;9350;53.176;8.194;2023-04-04T04:27:43;1.50;99.90
18444;DHT22;9350;53.176;8.194;2023-04-04T04:30:10;1.40;99.90
18444;DHT22;9350;53.176;8.194;2023-04-04T04:32:39;1.40;99.90
18444;DHT22;9350;53.176;8.194;2023-04-04T04:35:07;1.40;99.90
18444;DHT22;9350;53.176;8.194;2023-04-04T04:37:34;1.40;99.90
18444;DHT22;9350;53.176;8.194;2023-04-04T04:40:01;1.30;99.90
18444;DHT22;9350;53.176;8.194;2023-04-04T04:42:27;1.30;99.90
18444;DHT22;9350;53.176;8.194;2023-04-04T04:44:54;1.30;99.90
18444;DHT22;9350;53.176;8.194;2023-04-04T04:47:21;1.30;99.90
18444;DHT22;9350;53.176;8.194;2023-04-04T04:49:49;1.20;99.90
18444;DHT22;9350;53.176;8.194;2023-04-04T04:52:16;1.20;99.90
18444;DHT22;9350;53.176;8.194;2023-04-04T04:54:43;1.30;99.90
18444;DHT22;9350;53.176;8.194;2023-04-04T04:57:10;1.40;99.90
18444;DHT22;9350;53.176;8.194;2023-04-04T04:59:37;1.30;99.90
18444;DHT22;9350;53.176;8.194;2023-04-04T05:02:05;1.30;99.90
18444;DHT22;9350;53.176;8.194;2023-04-04T05:04:32;1.30;99.90
18444;DHT22;9350;53.176;8.194;2023-04-04T05:07:00;1.40;99.90
18444;DHT22;9350;53.176;8.194;2023-04-04T05:09:27;1.30;99.90
18444;DHT22;9350;53.176;8.194;2023-04-04T05:11:54;1.20;99.90
18444;DHT22;9350;53.176;8.194;2023-04-04T05:14:21;1.20;99.90
18444;DHT22;9350;53.176;8.194;2023-04-04T05:16:48;1.20;99.90
18444;DHT22;9350;53.176;8.194;2023-04-04T05:19:15;1.20;99.90
18444;DHT22;9350;53.176;8.194;2023-04-04T05:21:43;1.30;99.90
18444;DHT22;9350;53.176;8.194;2023-04-04T05:24:11;1.40;99.90
18444;DHT22;9350;53.176;8.194;2023-04-04T05:26:38;1.40;99.90
18444;DHT22;9350;53.176;8.194;2023-04-04T05:29:05;1.40;99.90
18444;DHT22;9350;53.176;8.194;2023-04-04T05:31:32;1.30;99.90
18444;DHT22;9350;53.176;8.194;2023-04-04T05:33:59;1.30;99.90
18444;DHT22;9350;53.176;8.194;2023-04-04T05:36:32;1.20;99.90
18444;DHT22;9350;53.176;8.194;2023-04-04T05:38:59;1.20;99.90
18444;DHT22;9350;53.176;8.194;2023-04-04T05:41:27;1.20;99.90
18444;DHT22;9350;53.176;8.194;2023-04-04T05:43:54;1.30;99.90
18444;DHT22;9350;53.176;8.194;2023-04-04T05:46:20;1.30;99.90
18444;DHT22;9350;53.176;8.194;2023-04-04T05:48:47;1.30;99.90
18444;DHT22;9350;53.176;8.194;2023-04-04T05:51:15;1.30;99.90
18444;DHT22;9350;53.176;8.194;2023-04-04T05:53:41;1.20;99.90
18444;DHT22;9350;53.176;8.194;2023-04-04T05:56:10;1.20;99.90
18444;DHT22;9350;53.176;8.194;2023-04-04T05:58:38;1.20;99.90
18444;DHT22;9350;53.176;8.194;2023-04-04T06:01:05;1.30;99.90
18444;DHT22;9350;53.176;8.194;2023-04-04T06:03:33;1.30;99.90
18444;DHT22;9350;53.176;8.194;2023-04-04T06:06:00;1.40;99.90
18444;DHT22;9350;53.176;8.194;2023-04-04T06:08:28;1.40;99.90
18444;DHT22;9350;53.176;8.194;2023-04-04T06:10:55;1.40;99.90
18444;DHT22;9350;53.176;8.194;2023-04-04T06:13:22;1.40;99.90
18444;DHT22;9350;53.176;8.194;2023-04-04T06:15:50;1.50;99.90
18444;DHT22;9350;53.176;8.194;2023-04-04T06:18:17;1.50;99.90
18444;DHT22;9350;53.176;8.194;2023-04-04T06:20:44;1.60;99.90
18444;DHT22;9350;53.176;8.194;2023-04-04T06:23:10;1.70;99.90
18444;DHT22;9350;53.176;8.194;2023-04-04T06:25:37;1.70;99.90
18444;DHT22;9350;53.176;8.194;2023-04-04T06:28:04;1.70;99.90
18444;DHT22;9350;53.176;8.194;2023-04-04T06:30:34;1.70;99.90
18444;DHT22;9350;53.176;8.194;2023-04-04T06:33:03;1.70;99.90
18444;DHT22;9350;53.176;8.194;2023-04-04T06:35:30;1.70;99.90
18444;DHT22;9350;53.176;8.194;2023-04-04T06:37:57;1.70;99.90
18444;DHT22;9350;53.176;8.194;2023-04-04T06:40:24;1.70;99.90
18444;DHT22;9350;53.176;8.194;2023-04-04T06:42:51;1.70;99.90
18444;DHT22;9350;53.176;8.194;2023-04-04T06:45:19;1.70;99.90
18444;DHT22;9350;53.176;8.194;2023-04-04T06:47:46;1.80;99.90
18444;DHT22;9350;53.176;8.194;2023-04-04T06:50:16;1.80;99.90
18444;DHT22;9350;53.176;8.194;2023-04-04T06:52:42;1.80;99.90
18444;DHT22;9350;53.176;8.194;2023-04-04T06:55:09;1.70;99.90
18444;DHT22;9350;53.176;8.194;2023-04-04T06:57:36;1.70;99.90
18444;DHT22;9350;53.176;8.194;2023-04-04T07:00:04;1.70;99.90
18444;DHT22;9350;53.176;8.194;2023-04-04T07:02:31;1.60;99.90
18444;DHT22;9350;53.176;8.194;2023-04-04T07:04:58;1.70;99.90
18444;DHT22;9350;53.176;8.194;2023-04-04T07:07:26;1.90;99.90
18444;DHT22;9350;53.176;8.194;2023-04-04T07:09:54;1.90;99.90
18444;DHT22;9350;53.176;8.194;2023-04-04T07:12:21;2.00;99.90
18444;DHT22;9350;53.176;8.194;2023-04-04T07:14:48;2.10;99.90
18444;DHT22;9350;53.176;8.194;2023-04-04T07:17:14;2.20;99.90
18444;DHT22;9350;53.176;8.194;2023-04-04T07:19:41;2.20;99.90
18444;DHT22;9350;53.176;8.194;2023-04-04T07:22:08;2.20;99.90
18444;DHT22;9350;53.176;8.194;2023-04-04T07:24:36;2.30;99.90
18444;DHT22;9350;53.176;8.194;2023-04-04T07:27:02;2.40;99.90
18444;DHT22;9350;53.176;8.194;2023-04-04T07:29:29;2.40;99.90
18444;DHT22;9350;53.176;8.194;2023-04-04T07:31:56;2.40;99.90
18444;DHT22;9350;53.176;8.194;2023-04-04T07:34:23;2.50;99.90
18444;DHT22;9350;53.176;8.194;2023-04-04T07:36:51;2.40;99.90
18444;DHT22;9350;53.176;8.194;2023-04-04T07:39:18;2.50;99.90
18444;DHT22;9350;53.176;8.194;2023-04-04T07:41:46;2.60;99.90
18444;DHT22;9350;53.176;8.194;2023-04-04T07:44:12;2.60;99.90
18444;DHT22;9350;53.176;8.194;2023-04-04T07:46:40;2.70;99.90
18444;DHT22;9350;53.176;8.194;2023-04-04T07:49:07;2.80;99.90
18444;DHT22;9350;53.176;8.194;2023-04-04T07:51:33;2.80;99.90
18444;DHT22;9350;53.176;8.194;2023-04-04T07:54:00;2.80;99.90
18444;DHT22;9350;53.176;8.194;2023-04-04T07:56:27;2.90;99.90
18444;DHT22;9350;53.176;8.194;2023-04-04T07:58:55;3.00;99.90
18444;DHT22;9350;53.176;8.194;2023-04-04T08:01:22;3.10;99.90
18444;DHT22;9350;53.176;8.194;2023-04-04T08:03:49;3.10;99.90
18444;DHT22;9350;53.176;8.194;2023-04-04T08:06:17;3.20;99.90
18444;DHT22;9350;53.176;8.194;2023-04-04T08:08:44;3.20;99.90
18444;DHT22;9350;53.176;8.194;2023-04-04T08:11:12;3.30;99.90
18444;DHT22;9350;53.176;8.194;2023-04-04T08:13:39;3.40;99.90
18444;DHT22;9350;53.176;8.194;2023-04-04T08:16:07;3.40;99.90
18444;DHT22;9350;53.176;8.194;2023-04-04T08:18:34;3.50;99.90
18444;DHT22;9350;53.176;8.194;2023-04-04T08:21:01;3.60;99.90
18444;DHT22;9350;53.176;8.194;2023-04-04T08:23:27;3.70;99.90
18444;DHT22;9350;53.176;8.194;2023-04-04T08:25:55;3.70;99.90
18444;DHT22;9350;53.176;8.194;2023-04-04T08:28:24;3.80;99.90
18444;DHT22;9350;53.176;8.194;2023-04-04T08:30:51;3.90;99.90
18444;DHT22;9350;53.176;8.194;2023-04-04T08:33:20;3.90;99.90
18444;DHT22;9350;53.176;8.194;2023-04-04T08:35:47;3.90;99.90
18444;DHT22;9350;53.176;8.194;2023-04-04T08:38:14;3.90;99.90
18444;DHT22;9350;53.176;8.194;2023-04-04T08:40:45;4.00;99.90
18444;DHT22;9350;53.176;8.194;2023-04-04T08:43:13;4.00;99.90
18444;DHT22;9350;53.176;8.194;2023-04-04T08:45:41;4.10;99.90
18444;DHT22;9350;53.176;8.194;2023-04-04T08:48:09;4.10;99.90
18444;DHT22;9350;53.176;8.194;2023-04-04T08:50:39;4.20;99.90
18444;DHT22;9350;53.176;8.194;2023-04-04T08:53:08;4.20;99.90
18444;DHT22;9350;53.176;8.194;2023-04-04T08:55:34;4.30;99.90
18444;DHT22;9350;53.176;8.194;2023-04-04T08:58:02;4.20;99.90
18444;DHT22;9350;53.176;8.194;2023-04-04T09:00:29;4.20;99.90
18444;DHT22;9350;53.176;8.194;2023-04-04T09:03:01;4.30;99.90
18444;DHT22;9350;53.176;8.194;2023-04-04T09:05:31;4.40;99.90
18444;DHT22;9350;53.176;8.194;2023-04-04T09:07:59;4.50;99.90
18444;DHT22;9350;53.176;8.194;2023-04-04T09:10:26;4.50;99.90
18444;DHT22;9350;53.176;8.194;2023-04-04T09:12:54;4.50;99.90
18444;DHT22;9350;53.176;8.194;2023-04-04T09:15:22;4.50;99.90
18444;DHT22;9350;53.176;8.194;2023-04-04T09:17:48;4.60;99.90
18444;DHT22;9350;53.176;8.194;2023-04-04T09:20:35;4.70;99.90
18444;DHT22;9350;53.176;8.194;2023-04-04T09:23:06;4.70;99.90
18444;DHT22;9350;53.176;8.194;2023-04-04T09:25:33;4.70;99.90
18444;DHT22;9350;53.176;8.194;2023-04-04T09:28:01;4.70;99.90
18444;DHT22;9350;53.176;8.194;2023-04-04T09:30:30;4.70;99.90
18444;DHT22;9350;53.176;8.194;2023-04-04T09:33:00;4.80;99.90
18444;DHT22;9350;53.176;8.194;2023-04-04T09:35:27;4.80;99.90
18444;DHT22;9350;53.176;8.194;2023-04-04T09:37:54;4.80;99.90
18444;DHT22;9350;53.176;8.194;2023-04-04T09:40:23;5.00;99.90
18444;DHT22;9350;53.176;8.194;2023-04-04T09:42:53;5.00;99.90
18444;DHT22;9350;53.176;8.194;2023-04-04T09:45:23;4.90;99.90
18444;DHT22;9350;53.176;8.194;2023-04-04T09:47:51;5.00;99.90
18444;DHT22;9350;53.176;8.194;2023-04-04T09:50:20;4.90;99.90
18444;DHT22;9350;53.176;8.194;2023-04-04T09:52:48;5.00;99.90
18444;DHT22;9350;53.176;8.194;2023-04-04T09:55:15;5.00;99.90
18444;DHT22;9350;53.176;8.194;2023-04-04T09:57:45;5.00;99.90
18444;DHT22;9350;53.176;8.194;2023-04-04T10:00:18;5.10;99.90
18444;DHT22;9350;53.176;8.194;2023-04-04T10:02:46;5.20;99.90
18444;DHT22;9350;53.176;8.194;2023-04-04T10:05:15;5.00;99.90
18444;DHT22;9350;53.176;8.194;2023-04-04T10:07:42;5.10;99.90
18444;DHT22;9350;53.176;8.194;2023-04-04T10:10:12;5.20;99.90
18444;DHT22;9350;53.176;8.194;2023-04-04T10:12:45;5.20;99.90
18444;DHT22;9350;53.176;8.194;2023-04-04T10:15:14;5.30;99.90
18444;DHT22;9350;53.176;8.194;2023-04-04T10:17:43;5.30;99.90
18444;DHT22;9350;53.176;8.194;2023-04-04T10:20:12;5.60;99.90
18444;DHT22;9350;53.176;8.194;2023-04-04T10:22:40;5.70;99.90
18444;DHT22;9350;53.176;8.194;2023-04-04T10:25:08;5.70;99.90
18444;DHT22;9350;53.176;8.194;2023-04-04T10:27:35;5.90;99.90
18444;DHT22;9350;53.176;8.194;2023-04-04T10:30:05;6.00;99.90
18444;DHT22;9350;53.176;8.194;2023-04-04T10:32:40;6.00;99.90
18444;DHT22;9350;53.176;8.194;2023-04-04T10:35:10;5.90;99.90
18444;DHT22;9350;53.176;8.194;2023-04-04T10:37:42;6.00;99.90
18444;DHT22;9350;53.176;8.194;2023-04-04T10:40:14;6.00;99.90
18444;DHT22;9350;53.176;8.194;2023-04-04T10:42:43;6.10;99.90
18444;DHT22;9350;53.176;8.194;2023-04-04T10:45:13;6.20;99.90
18444;DHT22;9350;53.176;8.194;2023-04-04T10:47:40;6.00;99.90
18444;DHT22;9350;53.176;8.194;2023-04-04T10:50:08;6.00;99.90
18444;DHT22;9350;53.176;8.194;2023-04-04T10:52:39;6.00;99.90
18444;DHT22;9350;53.176;8.194;2023-04-04T10:55:08;6.00;99.90
18444;DHT22;9350;53.176;8.194;2023-04-04T10:57:37;6.10;99.90
18444;DHT22;9350;53.176;8.194;2023-04-04T11:00:06;6.00;99.90
18444;DHT22;9350;53.176;8.194;2023-04-04T11:02:45;6.10;99.90
18444;DHT22;9350;53.176;8.194;2023-04-04T11:05:18;6.10;99.90
18444;DHT22;9350;53.176;8.194;2023-04-04T11:07:47;6.20;99.90
18444;DHT22;9350;53.176;8.194;2023-04-04T11:10:21;6.30;99.90
18444;DHT22;9350;53.176;8.194;2023-04-04T11:12:52;6.30;99.90
18444;DHT22;9350;53.176;8.194;2023-04-04T11:15:21;6.30;99.90
18444;DHT22;9350;53.176;8.194;2023-04-04T11:17:58;6.40;99.90
18444;DHT22;9350;53.176;8.194;2023-04-04T11:20:31;6.40;99.90
18444;DHT22;9350;53.176;8.194;2023-04-04T11:23:03;6.50;99.90
18444;DHT22;9350;53.176;8.194;2023-04-04T11:25:32;6.50;99.90
18444;DHT22;9350;53.176;8.194;2023-04-04T11:28:04;6.50;99.90
18444;DHT22;9350;53.176;8.194;2023-04-04T11:30:34;6.60;99.90
18444;DHT22;9350;53.176;8.194;2023-04-04T11:33:04;6.60;99.90
18444;DHT22;9350;53.176;8.194;2023-04-04T11:35:31;6.70;99.90
18444;DHT22;9350;53.176;8.194;2023-04-04T11:37:58;6.70;99.90
18444;DHT22;9350;53.176;8.194;2023-04-04T11:40:37;6.70;99.90
18444;DHT22;9350;53.176;8.194;2023-04-04T11:43:08;6.80;99.90
18444;DHT22;9350;53.176;8.194;2023-04-04T11:45:35;6.80;99.90
18444;DHT22;9350;53.176;8.194;2023-04-04T11:48:05;6.80;99.90
18444;DHT22;9350;53.176;8.194;2023-04-04T11:50:35;6.80;99.90
18444;DHT22;9350;53.176;8.194;2023-04-04T11:53:06;6.80;99.90
18444;DHT22;9350;53.176;8.194;2023-04-04T11:55:38;6.90;99.90
18444;DHT22;9350;53.176;8.194;2023-04-04T11:58:10;6.90;99.90
18444;DHT22;9350;53.176;8.194;2023-04-04T12:00:38;7.00;99.90
18444;DHT22;9350;53.176;8.194;2023-04-04T12:03:09;7.10;99.90
18444;DHT22;9350;53.176;8.194;2023-04-04T12:05:36;7.00;99.90
18444;DHT22;9350;53.176;8.194;2023-04-04T12:08:05;7.00;99.90
18444;DHT22;9350;53.176;8.194;2023-04-04T12:10:34;7.10;99.90
18444;DHT22;9350;53.176;8.194;2023-04-04T12:13:03;7.10;99.90
18444;DHT22;9350;53.176;8.194;2023-04-04T12:15:32;7.10;99.90
18444;DHT22;9350;53.176;8.194;2023-04-04T12:17:59;7.20;99.90
18444;DHT22;9350;53.176;8.194;2023-04-04T12:20:28;7.30;99.90
18444;DHT22;9350;53.176;8.194;2023-04-04T12:22:55;7.30;99.90
18444;DHT22;9350;53.176;8.194;2023-04-04T12:25:22;7.20;99.90
18444;DHT22;9350;53.176;8.194;2023-04-04T12:27:50;7.20;99.90
18444;DHT22;9350;53.176;8.194;2023-04-04T12:30:18;7.10;99.90
18444;DHT22;9350;53.176;8.194;2023-04-04T12:32:46;7.10;99.90
18444;DHT22;9350;53.176;8.194;2023-04-04T12:35:13;7.10;99.90
18444;DHT22;9350;53.176;8.194;2023-04-04T12:38:01;7.20;99.90
18444;DHT22;9350;53.176;8.194;2023-04-04T12:40:31;7.20;99.90
18444;DHT22;9350;53.176;8.194;2023-04-04T12:43:00;7.30;99.90
18444;DHT22;9350;53.176;8.194;2023-04-04T12:45:27;7.30;99.90
18444;DHT22;9350;53.176;8.194;2023-04-04T12:47:55;7.20;99.90
18444;DHT22;9350;53.176;8.194;2023-04-04T12:50:23;7.30;99.90
18444;DHT22;9350;53.176;8.194;2023-04-04T12:52:51;7.30;99.90
18444;DHT22;9350;53.176;8.194;2023-04-04T12:55:21;7.40;99.90
18444;DHT22;9350;53.176;8.194;2023-04-04T12:57:49;7.40;99.90
18444;DHT22;9350;53.176;8.194;2023-04-04T13:00:18;7.50;99.90
18444;DHT22;9350;53.176;8.194;2023-04-04T13:02:48;7.60;99.90
18444;DHT22;9350;53.176;8.194;2023-04-04T13:05:15;7.60;99.90
18444;DHT22;9350;53.176;8.194;2023-04-04T13:07:43;7.60;99.90
18444;DHT22;9350;53.176;8.194;2023-04-04T13:10:13;7.50;99.90
18444;DHT22;9350;53.176;8.194;2023-04-04T13:13:06;7.70;99.90
18444;DHT22;9350;53.176;8.194;2023-04-04T13:15:49;7.60;99.90
18444;DHT22;9350;53.176;8.194;2023-04-04T13:18:17;7.60;99.90
18444;DHT22;9350;53.176;8.194;2023-04-04T13:20:46;7.60;99.90
18444;DHT22;9350;53.176;8.194;2023-04-04T13:23:13;7.70;99.90
18444;DHT22;9350;53.176;8.194;2023-04-04T13:25:40;7.70;99.90
18444;DHT22;9350;53.176;8.194;2023-04-04T13:28:08;7.70;99.90
18444;DHT22;9350;53.176;8.194;2023-04-04T13:30:36;7.70;99.90
18444;DHT22;9350;53.176;8.194;2023-04-04T13:33:04;7.70;99.90
18444;DHT22;9350;53.176;8.194;2023-04-04T13:35:31;7.80;99.90
18444;DHT22;9350;53.176;8.194;2023-04-04T13:37:58;7.80;99.90
18444;DHT22;9350;53.176;8.194;2023-04-04T13:40:24;7.90;99.90
18444;DHT22;9350;53.176;8.194;2023-04-04T13:42:52;7.80;99.90
18444;DHT22;9350;53.176;8.194;2023-04-04T13:45:20;7.80;99.90
18444;DHT22;9350;53.176;8.194;2023-04-04T13:47:46;7.90;99.90
18444;DHT22;9350;53.176;8.194;2023-04-04T13:50:13;7.90;99.90
18444;DHT22;9350;53.176;8.194;2023-04-04T13:52:40;7.90;99.90
18444;DHT22;9350;53.176;8.194;2023-04-04T13:55:08;8.10;99.90
18444;DHT22;9350;53.176;8.194;2023-04-04T13:57:35;8.10;99.90
18444;DHT22;9350;53.176;8.194;2023-04-04T14:00:02;8.00;99.90
18444;DHT22;9350;53.176;8.194;2023-04-04T14:02:31;7.90;99.90
18444;DHT22;9350;53.176;8.194;2023-04-04T14:04:58;7.90;99.90
18444;DHT22;9350;53.176;8.194;2023-04-04T14:07:24;8.00;99.90
18444;DHT22;9350;53.176;8.194;2023-04-04T14:09:51;8.00;99.90
18444;DHT22;9350;53.176;8.194;2023-04-04T14:12:18;8.10;99.90
18444;DHT22;9350;53.176;8.194;2023-04-04T14:14:45;8.10;99.90
18444;DHT22;9350;53.176;8.194;2023-04-04T14:17:11;8.10;99.90
18444;DHT22;9350;53.176;8.194;2023-04-04T14:19:41;8.10;99.90
18444;DHT22;9350;53.176;8.194;2023-04-04T14:22:07;8.10;99.90
18444;DHT22;9350;53.176;8.194;2023-04-04T14:24:34;8.10;99.90
18444;DHT22;9350;53.176;8.194;2023-04-04T14:27:01;8.30;99.90
18444;DHT22;9350;53.176;8.194;2023-04-04T14:29:28;8.20;99.90
18444;DHT22;9350;53.176;8.194;2023-04-04T14:31:55;8.20;99.90
18444;DHT22;9350;53.176;8.194;2023-04-04T14:34:23;8.30;99.90
18444;DHT22;9350;53.176;8.194;2023-04-04T14:36:52;8.30;99.90
18444;DHT22;9350;53.176;8.194;2023-04-04T14:39:19;8.40;99.90
18444;DHT22;9350;53.176;8.194;2023-04-04T14:41:45;8.40;99.90
18444;DHT22;9350;53.176;8.194;2023-04-04T14:44:12;8.30;99.90
18444;DHT22;9350;53.176;8.194;2023-04-04T14:46:39;8.30;99.90
18444;DHT22;9350;53.176;8.194;2023-04-04T14:49:06;8.20;99.90
18444;DHT22;9350;53.176;8.194;2023-04-04T14:51:33;8.30;99.90
18444;DHT22;9350;53.176;8.194;2023-04-04T14:54:01;8.30;99.90
18444;DHT22;9350;53.176;8.194;2023-04-04T14:56:28;8.30;99.90
18444;DHT22;9350;53.176;8.194;2023-04-04T14:58:54;8.30;99.90
18444;DHT22;9350;53.176;8.194;2023-04-04T15:01:22;8.30;99.90
18444;DHT22;9350;53.176;8.194;2023-04-04T15:03:49;8.30;99.90
18444;DHT22;9350;53.176;8.194;2023-04-04T15:06:15;8.30;99.90
18444;DHT22;9350;53.176;8.194;2023-04-04T15:08:42;8.30;99.90
18444;DHT22;9350;53.176;8.194;2023-04-04T15:11:10;8.20;99.90
18444;DHT22;9350;53.176;8.194;2023-04-04T15:13:37;8.10;99.90
18444;DHT22;9350;53.176;8.194;2023-04-04T15:16:04;8.10;99.90
18444;DHT22;9350;53.176;8.194;2023-04-04T15:18:31;8.00;99.90
18444;DHT22;9350;53.176;8.194;2023-04-04T15:20:58;8.00;99.90
18444;DHT22;9350;53.176;8.194;2023-04-04T15:23:25;8.10;99.90
18444;DHT22;9350;53.176;8.194;2023-04-04T15:25:52;8.10;99.90
18444;DHT22;9350;53.176;8.194;2023-04-04T15:28:20;8.10;99.90
18444;DHT22;9350;53.176;8.194;2023-04-04T15:30:46;8.10;99.90
18444;DHT22;9350;53.176;8.194;2023-04-04T15:33:13;8.00;99.90
18444;DHT22;9350;53.176;8.194;2023-04-04T15:35:40;8.00;99.90
18444;DHT22;9350;53.176;8.194;2023-04-04T15:38:07;8.10;99.90
18444;DHT22;9350;53.176;8.194;2023-04-04T15:40:34;8.00;99.90
18444;DHT22;9350;53.176;8.194;2023-04-04T15:43:00;8.00;99.90
18444;DHT22;9350;53.176;8.194;2023-04-04T15:45:28;7.90;99.90
18444;DHT22;9350;53.176;8.194;2023-04-04T15:47:56;7.90;99.90
18444;DHT22;9350;53.176;8.194;2023-04-04T15:50:23;7.90;99.90
18444;DHT22;9350;53.176;8.194;2023-04-04T15:52:49;7.90;99.90
18444;DHT22;9350;53.176;8.194;2023-04-04T15:55:16;7.90;99.90
18444;DHT22;9350;53.176;8.194;2023-04-04T15:57:43;7.80;99.90
18444;DHT22;9350;53.176;8.194;2023-04-04T16:00:11;7.80;99.90
18444;DHT22;9350;53.176;8.194;2023-04-04T16:02:39;7.70;99.90
18444;DHT22;9350;53.176;8.194;2023-04-04T16:05:07;7.70;99.90
18444;DHT22;9350;53.176;8.194;2023-04-04T16:07:34;7.60;99.90